Time,TemperatureF,DewpointF,PressureIn,WindDirection,WindDirectionDegrees,WindSpeedMPH,WindSpeedGustMPH,Humidity,HourlyPrecipIn,Conditions,Clouds,dailyrainin,SoftwareType,DateUTC
2013-05-27 00:05:00,45.4,37.2,30.19,West,276,1.0,1.0,73,0.00,,,0.00,Wunderground v.1.15,2013-05-27 04:05:00,
2013-05-27 00:15:00,45.1,37.3,30.20,West,276,1.0,3.0,74,0.00,,,0.00,Wunderground v.1.15,2013-05-27 04:15:00,
2013-05-27 00:20:00,44.9,37.5,30.20,West,276,2.0,2.0,75,0.00,,,0.00,Wunderground v.1.15,2013-05-27 04:20:00,
2013-05-27 00:30:00,44.7,37.9,30.20,West,276,2.0,2.0,77,0.00,,,0.00,Wunderground v.1.15,2013-05-27 04:30:00,
2013-05-27 00:40:00,44.6,38.2,30.20,West,276,1.0,1.0,78,0.00,,,0.00,Wunderground v.1.15,2013-05-27 04:40:00,
2013-05-27 00:50:00,44.3,38.2,30.20,West,276,1.0,1.0,79,0.00,,,0.00,Wunderground v.1.15,2013-05-27 04:50:00,
2013-05-27 00:55:00,44.0,38.2,30.21,West,276,2.0,2.0,80,0.00,,,0.00,Wunderground v.1.15,2013-05-27 04:55:00,
2013-05-27 01:00:00,43.9,38.4,30.21,West,276,2.0,2.0,81,0.00,,,0.00,Wunderground v.1.15,2013-05-27 05:00:00,
2013-05-27 01:05:00,43.8,38.7,30.21,West,276,2.0,3.0,82,0.00,,,0.00,Wunderground v.1.15,2013-05-27 05:05:00,
2013-05-27 01:15:00,43.7,38.9,30.21,West,276,2.0,3.0,83,0.00,,,0.00,Wunderground v.1.15,2013-05-27 05:15:00,
2013-05-27 01:20:00,43.7,38.9,30.21,West,276,1.0,1.0,83,0.00,,,0.00,Wunderground v.1.15,2013-05-27 05:20:00,
2013-05-27 01:30:00,43.6,39.1,30.21,West,276,0.0,0.0,84,0.00,,,0.00,Wunderground v.1.15,2013-05-27 05:30:00,
2013-05-27 01:40:00,43.4,38.9,30.21,West,276,0.0,1.0,84,0.00,,,0.00,Wunderground v.1.15,2013-05-27 05:40:00,
2013-05-27 01:50:00,43.5,39.0,30.21,West,276,2.0,2.0,84,0.00,,,0.00,Wunderground v.1.15,2013-05-27 05:50:00,
2013-05-27 02:00:00,43.4,38.9,30.21,West,276,1.0,3.0,84,0.00,,,0.00,Wunderground v.1.15,2013-05-27 06:00:00,
2013-05-27 02:05:00,43.4,38.6,30.21,West,276,2.0,3.0,83,0.00,,,0.00,Wunderground v.1.15,2013-05-27 06:05:00,
2013-05-27 02:15:00,43.3,38.5,30.21,West,276,2.0,2.0,83,0.00,,,0.00,Wunderground v.1.15,2013-05-27 06:15:00,
2013-05-27 02:20:00,43.3,38.5,30.21,West,276,3.0,3.0,83,0.00,,,0.00,Wunderground v.1.15,2013-05-27 06:20:00,
2013-05-27 02:30:00,43.4,38.6,30.21,West,276,3.0,3.0,83,0.00,,,0.00,Wunderground v.1.15,2013-05-27 06:30:00,
2013-05-27 02:40:00,43.7,38.6,30.22,West,276,3.0,3.0,82,0.00,,,0.00,Wunderground v.1.15,2013-05-27 06:40:00,
2013-05-27 02:50:00,44.0,38.5,30.22,West,276,3.0,3.0,81,0.00,,,0.00,Wunderground v.1.15,2013-05-27 06:50:00,
2013-05-27 02:55:00,43.9,38.4,30.22,West,276,3.0,3.0,81,0.00,,,0.00,Wunderground v.1.15,2013-05-27 06:55:00,
2013-05-27 03:05:00,43.8,38.3,30.22,West,275,4.0,4.0,81,0.00,,,0.00,Wunderground v.1.15,2013-05-27 07:05:00,
2013-05-27 03:10:00,43.7,38.3,30.22,West,275,3.0,3.0,81,0.00,,,0.00,Wunderground v.1.15,2013-05-27 07:10:00,
2013-05-27 03:20:00,43.5,38.1,30.22,West,275,3.0,3.0,81,0.00,,,0.00,Wunderground v.1.15,2013-05-27 07:20:00,
2013-05-27 03:25:00,43.4,38.3,30.22,West,275,3.0,3.0,82,0.00,,,0.00,Wunderground v.1.15,2013-05-27 07:25:00,
2013-05-27 03:35:00,43.0,38.2,30.22,West,275,2.0,2.0,83,0.00,,,0.00,Wunderground v.1.15,2013-05-27 07:35:00,
2013-05-27 03:45:00,42.7,38.2,30.23,West,275,3.0,3.0,84,0.00,,,0.00,Wunderground v.1.15,2013-05-27 07:45:00,
2013-05-27 03:55:00,42.5,38.0,30.23,West,276,2.0,4.0,84,0.00,,,0.00,Wunderground v.1.15,2013-05-27 07:55:00,
2013-05-27 04:00:00,42.4,38.2,30.23,West,275,2.0,2.0,85,0.00,,,0.00,Wunderground v.1.15,2013-05-27 08:00:00,
2013-05-27 04:05:00,42.3,38.1,30.23,West,275,2.0,3.0,85,0.00,,,0.00,Wunderground v.1.15,2013-05-27 08:05:00,
2013-05-27 04:15:00,42.2,38.3,30.23,West,275,3.0,3.0,86,0.00,,,0.00,Wunderground v.1.15,2013-05-27 08:15:00,
2013-05-27 04:25:00,42.0,38.1,30.23,West,275,2.0,3.0,86,0.00,,,0.00,Wunderground v.1.15,2013-05-27 08:25:00,
2013-05-27 04:35:00,41.8,38.2,30.23,West,275,2.0,3.0,87,0.00,,,0.00,Wunderground v.1.15,2013-05-27 08:35:00,
2013-05-27 04:45:00,41.5,37.9,30.23,West,275,2.0,2.0,87,0.00,,,0.00,Wunderground v.1.15,2013-05-27 08:45:00,
2013-05-27 04:55:00,41.2,37.6,30.23,West,276,2.0,4.0,87,0.00,,,0.00,Wunderground v.1.15,2013-05-27 08:55:00,
2013-05-27 05:00:00,41.1,37.8,30.24,West,275,3.0,3.0,88,0.00,,,0.00,Wunderground v.1.15,2013-05-27 09:00:00,
2013-05-27 05:10:00,40.7,37.4,30.24,West,275,3.0,3.0,88,0.00,,,0.00,Wunderground v.1.15,2013-05-27 09:10:00,
2013-05-27 05:20:00,40.6,37.6,30.24,West,275,3.0,3.0,89,0.00,,,0.00,Wunderground v.1.15,2013-05-27 09:20:00,
2013-05-27 05:25:00,40.5,37.5,30.24,West,275,3.0,3.0,89,0.00,,,0.00,Wunderground v.1.15,2013-05-27 09:25:00,
2013-05-27 05:35:00,40.4,37.4,30.24,West,275,3.0,3.0,89,0.00,,,0.00,Wunderground v.1.15,2013-05-27 09:35:00,
2013-05-27 05:45:00,40.4,37.4,30.23,West,275,4.0,4.0,89,0.00,,,0.00,Wunderground v.1.15,2013-05-27 09:45:00,
2013-05-27 05:55:00,40.4,37.4,30.23,West,275,3.0,4.0,89,0.00,,,0.00,Wunderground v.1.15,2013-05-27 09:55:00,
2013-05-27 06:05:00,40.4,37.4,30.24,West,275,2.0,2.0,89,0.00,,,0.00,Wunderground v.1.15,2013-05-27 10:05:00,
2013-05-27 06:10:00,40.4,37.1,30.24,West,275,2.0,2.0,88,0.00,,,0.00,Wunderground v.1.15,2013-05-27 10:10:00,
2013-05-27 06:20:00,40.5,37.2,30.23,West,275,2.0,2.0,88,0.00,,,0.00,Wunderground v.1.15,2013-05-27 10:20:00,
2013-05-27 06:30:00,40.8,37.5,30.24,West,276,3.0,4.0,88,0.00,,,0.00,Wunderground v.1.15,2013-05-27 10:30:00,
2013-05-27 06:40:00,41.2,37.9,30.24,West,275,3.0,3.0,88,0.00,,,0.00,Wunderground v.1.15,2013-05-27 10:40:00,
2013-05-27 06:45:00,41.5,37.9,30.24,West,275,4.0,5.0,87,0.00,,,0.00,Wunderground v.1.15,2013-05-27 10:45:00,
2013-05-27 06:55:00,42.3,38.7,30.25,West,275,3.0,4.0,87,0.00,,,0.00,Wunderground v.1.15,2013-05-27 10:55:00,
2013-05-27 07:05:00,43.2,39.3,30.25,West,275,3.0,3.0,86,0.00,,,0.00,Wunderground v.1.15,2013-05-27 11:05:00,
2013-05-27 07:10:00,43.7,39.8,30.25,West,275,3.0,4.0,86,0.00,,,0.00,Wunderground v.1.15,2013-05-27 11:10:00,
2013-05-27 07:20:00,44.8,40.3,30.25,West,275,3.0,3.0,84,0.00,,,0.00,Wunderground v.1.15,2013-05-27 11:20:00,
2013-05-27 07:30:00,45.9,41.0,30.25,West,275,2.0,3.0,83,0.00,,,0.00,Wunderground v.1.15,2013-05-27 11:30:00,
2013-05-27 07:35:00,46.5,41.3,30.25,West,275,2.0,3.0,82,0.00,,,0.00,Wunderground v.1.15,2013-05-27 11:35:00,
2013-05-27 07:45:00,47.9,42.0,30.25,West,275,2.0,2.0,80,0.00,,,0.00,Wunderground v.1.15,2013-05-27 11:45:00,
2013-05-27 07:50:00,48.5,42.3,30.25,West,275,1.0,1.0,79,0.00,,,0.00,Wunderground v.1.15,2013-05-27 11:50:00,
2013-05-27 08:00:00,49.7,42.4,30.25,West,275,1.0,1.0,76,0.00,,,0.00,Wunderground v.1.15,2013-05-27 12:00:00,
2013-05-27 08:10:00,50.8,42.5,30.25,West,275,0.0,0.0,73,0.00,,,0.00,Wunderground v.1.15,2013-05-27 12:10:00,
2013-05-27 08:15:00,51.3,42.6,30.25,West,275,1.0,1.0,72,0.00,,,0.00,Wunderground v.1.15,2013-05-27 12:15:00,
2013-05-27 08:25:00,52.4,42.9,30.25,West,275,1.0,3.0,70,0.00,,,0.00,Wunderground v.1.15,2013-05-27 12:25:00,
2013-05-27 08:35:00,53.2,42.5,30.25,West,275,1.0,1.0,67,0.00,,,0.00,Wunderground v.1.15,2013-05-27 12:35:00,
2013-05-27 08:45:00,54.1,43.4,30.26,West,275,1.0,1.0,67,0.00,,,0.00,Wunderground v.1.15,2013-05-27 12:45:00,
2013-05-27 08:50:00,54.6,43.9,30.26,West,275,0.0,0.0,67,0.00,,,0.00,Wunderground v.1.15,2013-05-27 12:50:00,
2013-05-27 09:00:00,55.6,43.2,30.26,West,275,1.0,1.0,63,0.00,,,0.00,Wunderground v.1.15,2013-05-27 13:00:00,
2013-05-27 09:10:00,56.1,43.3,30.26,West,275,3.0,3.0,62,0.00,,,0.00,Wunderground v.1.15,2013-05-27 13:10:00,
2013-05-27 09:15:00,56.3,44.3,30.26,West,275,2.0,4.0,64,0.00,,,0.00,Wunderground v.1.15,2013-05-27 13:15:00,
2013-05-27 09:25:00,56.9,43.6,30.26,WNW,297,2.0,3.0,61,0.00,,,0.00,Wunderground v.1.15,2013-05-27 13:25:00,
2013-05-27 09:35:00,57.6,44.7,30.26,WNW,284,3.0,3.0,62,0.00,,,0.00,Wunderground v.1.15,2013-05-27 13:35:00,
2013-05-27 09:45:00,58.5,44.7,30.26,WNW,292,1.0,2.0,60,0.00,,,0.00,Wunderground v.1.15,2013-05-27 13:45:00,
2013-05-27 09:50:00,59.0,44.7,30.25,NW,304,2.0,2.0,59,0.00,,,0.00,Wunderground v.1.15,2013-05-27 13:50:00,
2013-05-27 10:00:00,59.4,44.6,30.25,NW,304,1.0,2.0,58,0.00,,,0.00,Wunderground v.1.15,2013-05-27 14:00:00,
2013-05-27 10:10:00,59.9,44.2,30.25,WNW,294,2.0,2.0,56,0.00,,,0.00,Wunderground v.1.15,2013-05-27 14:10:00,
2013-05-27 10:20:00,60.5,45.6,30.25,WNW,297,1.0,1.0,58,0.00,,,0.00,Wunderground v.1.15,2013-05-27 14:20:00,
2013-05-27 10:25:00,61.0,45.7,30.24,WNW,296,1.0,1.0,57,0.00,,,0.00,Wunderground v.1.15,2013-05-27 14:25:00,
2013-05-27 10:30:00,61.4,45.6,30.24,WNW,297,1.0,2.0,56,0.00,,,0.00,Wunderground v.1.15,2013-05-27 14:30:00,
2013-05-27 10:40:00,62.1,45.7,30.23,WNW,296,1.0,5.0,55,0.00,,,0.00,Wunderground v.1.15,2013-05-27 14:40:00,
2013-05-27 10:50:00,62.7,45.3,30.23,WNW,296,1.0,1.0,53,0.00,,,0.00,Wunderground v.1.15,2013-05-27 14:50:00,
2013-05-27 11:00:00,63.0,44.1,30.23,WNW,294,2.0,2.0,50,0.00,,,0.00,Wunderground v.1.15,2013-05-27 15:00:00,
2013-05-27 11:05:00,63.3,44.9,30.23,WNW,294,1.0,2.0,51,0.00,,,0.00,Wunderground v.1.15,2013-05-27 15:05:00,
2013-05-27 11:10:00,63.6,44.1,30.23,WNW,294,1.0,1.0,49,0.00,,,0.00,Wunderground v.1.15,2013-05-27 15:10:00,
2013-05-27 11:15:00,64.0,45.5,30.23,WNW,296,1.0,2.0,51,0.00,,,0.00,Wunderground v.1.15,2013-05-27 15:15:00,
2013-05-27 11:25:00,64.8,43.5,30.23,WNW,284,2.0,3.0,46,0.00,,,0.00,Wunderground v.1.15,2013-05-27 15:25:00,
2013-05-27 11:35:00,65.3,42.8,30.23,WNW,287,2.0,3.0,44,0.00,,,0.00,Wunderground v.1.15,2013-05-27 15:35:00,
2013-05-27 11:40:00,65.6,42.5,30.23,WNW,288,1.0,1.0,43,0.00,,,0.00,Wunderground v.1.15,2013-05-27 15:40:00,
2013-05-27 11:50:00,66.0,43.5,30.22,WNW,296,2.0,2.0,44,0.00,,,0.00,Wunderground v.1.15,2013-05-27 15:50:00,
2013-05-27 11:55:00,66.1,42.9,30.22,NW,313,2.0,3.0,43,0.00,,,0.00,Wunderground v.1.15,2013-05-27 15:55:00,
2013-05-27 12:05:00,66.2,41.8,30.22,WNW,284,4.0,4.0,41,0.00,,,0.00,Wunderground v.1.15,2013-05-27 16:05:00,
2013-05-27 12:15:00,66.8,42.3,30.22,WNW,286,2.0,6.0,41,0.00,,,0.00,Wunderground v.1.15,2013-05-27 16:15:00,
2013-05-27 12:25:00,67.5,44.8,30.22,NW,310,2.0,2.0,44,0.00,,,0.00,Wunderground v.1.15,2013-05-27 16:25:00,
2013-05-27 12:35:00,68.3,41.7,30.22,NW,323,1.0,4.0,38,0.00,,,0.00,Wunderground v.1.15,2013-05-27 16:35:00,
2013-05-27 12:40:00,68.0,42.8,30.21,NW,317,2.0,3.0,40,0.00,,,0.00,Wunderground v.1.15,2013-05-27 16:40:00,
2013-05-27 12:45:00,68.0,42.1,30.21,NW,315,2.0,3.0,39,0.00,,,0.00,Wunderground v.1.15,2013-05-27 16:45:00,
2013-05-27 12:55:00,68.3,44.9,30.20,WNW,300,2.0,6.0,43,0.00,,,0.00,Wunderground v.1.15,2013-05-27 16:55:00,
2013-05-27 13:05:00,68.3,43.7,30.20,WNW,284,3.0,3.0,41,0.00,,,0.00,Wunderground v.1.15,2013-05-27 17:05:00,
2013-05-27 13:10:00,68.5,45.1,30.20,WNW,284,2.0,4.0,43,0.00,,,0.00,Wunderground v.1.15,2013-05-27 17:10:00,
2013-05-27 13:20:00,69.0,45.6,30.20,West,277,1.0,1.0,43,0.00,,,0.00,Wunderground v.1.15,2013-05-27 17:20:00,
2013-05-27 13:25:00,69.0,44.9,30.20,West,270,3.0,3.0,42,0.00,,,0.00,Wunderground v.1.15,2013-05-27 17:25:00,
2013-05-27 13:35:00,68.7,44.0,30.19,WSW,256,2.0,3.0,41,0.00,,,0.00,Wunderground v.1.15,2013-05-27 17:35:00,
2013-05-27 13:45:00,68.9,44.9,30.19,WNW,291,4.0,7.0,42,0.00,,,0.00,Wunderground v.1.15,2013-05-27 17:45:00,
2013-05-27 13:50:00,69.0,44.9,30.19,WNW,284,3.0,3.0,42,0.00,,,0.00,Wunderground v.1.15,2013-05-27 17:50:00,
2013-05-27 14:00:00,69.2,44.5,30.19,West,281,3.0,3.0,41,0.00,,,0.00,Wunderground v.1.15,2013-05-27 18:00:00,
2013-05-27 14:05:00,69.4,43.4,30.18,WNW,283,2.0,3.0,39,0.00,,,0.00,Wunderground v.1.15,2013-05-27 18:05:00,
2013-05-27 14:10:00,69.7,45.6,30.18,WNW,284,1.0,7.0,42,0.00,,,0.00,Wunderground v.1.15,2013-05-27 18:10:00,
2013-05-27 14:25:00,70.3,42.8,30.17,WNW,295,3.0,3.0,37,0.00,,,0.00,Wunderground v.1.15,2013-05-27 18:25:00,
2013-05-27 14:35:00,70.4,45.6,30.17,NW,304,2.0,5.0,41,0.00,,,0.00,Wunderground v.1.15,2013-05-27 18:35:00,
2013-05-27 14:45:00,71.1,44.2,30.16,WNW,302,1.0,1.0,38,0.00,,,0.00,Wunderground v.1.15,2013-05-27 18:45:00,
2013-05-27 14:55:00,71.3,47.6,30.16,NNE,22,2.0,2.0,43,0.00,,,0.00,Wunderground v.1.15,2013-05-27 18:55:00,
2013-05-27 15:05:00,71.6,47.3,30.16,WNW,294,2.0,3.0,42,0.00,,,0.00,Wunderground v.1.15,2013-05-27 19:05:00,
2013-05-27 15:10:00,71.5,46.6,30.16,NW,304,2.0,2.0,41,0.00,,,0.00,Wunderground v.1.15,2013-05-27 19:10:00,
2013-05-27 15:20:00,70.7,44.5,30.15,NE,56,4.0,4.0,39,0.00,,,0.00,Wunderground v.1.15,2013-05-27 19:20:00,
2013-05-27 15:30:00,70.4,44.3,30.16,NNW,329,3.0,5.0,39,0.00,,,0.00,Wunderground v.1.15,2013-05-27 19:30:00,
2013-05-27 15:40:00,70.6,45.7,30.16,North,9,2.0,2.0,41,0.00,,,0.00,Wunderground v.1.15,2013-05-27 19:40:00,
2013-05-27 15:50:00,70.6,43.1,30.15,NE,38,2.0,3.0,37,0.00,,,0.00,Wunderground v.1.15,2013-05-27 19:50:00,
2013-05-27 16:00:00,70.3,44.2,30.16,NNE,28,3.0,3.0,39,0.00,,,0.00,Wunderground v.1.15,2013-05-27 20:00:00,
2013-05-27 16:10:00,70.6,43.7,30.16,NNE,25,2.0,2.0,38,0.00,,,0.00,Wunderground v.1.15,2013-05-27 20:10:00,
2013-05-27 16:20:00,70.4,42.9,30.16,NE,44,2.0,6.0,37,0.00,,,0.00,Wunderground v.1.15,2013-05-27 20:20:00,
2013-05-27 16:25:00,70.2,42.7,30.16,NE,41,3.0,6.0,37,0.00,,,0.00,Wunderground v.1.15,2013-05-27 20:25:00,
2013-05-27 16:30:00,69.9,45.1,30.15,NE,42,3.0,3.0,41,0.00,,,0.00,Wunderground v.1.15,2013-05-27 20:30:00,
2013-05-27 16:40:00,70.1,43.3,30.15,NW,318,2.0,2.0,38,0.00,,,0.00,Wunderground v.1.15,2013-05-27 20:40:00,
2013-05-27 16:50:00,70.2,42.7,30.15,NE,40,2.0,5.0,37,0.00,,,0.00,Wunderground v.1.15,2013-05-27 20:50:00,
2013-05-27 16:55:00,69.9,43.8,30.15,NNE,30,3.0,5.0,39,0.00,,,0.00,Wunderground v.1.15,2013-05-27 20:55:00,
2013-05-27 17:00:00,69.8,43.7,30.15,North,9,2.0,2.0,39,0.00,,,0.00,Wunderground v.1.15,2013-05-27 21:00:00,
2013-05-27 17:10:00,70.0,43.2,30.15,North,360,1.0,1.0,38,0.00,,,0.00,Wunderground v.1.15,2013-05-27 21:10:00,
2013-05-27 17:20:00,69.7,42.3,30.15,NNW,341,2.0,2.0,37,0.00,,,0.00,Wunderground v.1.15,2013-05-27 21:20:00,
2013-05-27 17:30:00,69.4,44.7,30.15,North,355,2.0,3.0,41,0.00,,,0.00,Wunderground v.1.15,2013-05-27 21:30:00,
2013-05-27 17:40:00,69.1,42.4,30.15,North,355,1.0,1.0,38,0.00,,,0.00,Wunderground v.1.15,2013-05-27 21:40:00,
2013-05-27 17:45:00,68.8,42.1,30.15,North,355,1.0,1.0,38,0.00,,,0.00,Wunderground v.1.15,2013-05-27 21:45:00,
2013-05-27 17:55:00,68.7,42.7,30.15,North,355,1.0,1.0,39,0.00,,,0.00,Wunderground v.1.15,2013-05-27 21:55:00,
2013-05-27 18:05:00,68.3,41.7,30.14,NE,38,2.0,2.0,38,0.00,,,0.00,Wunderground v.1.15,2013-05-27 22:05:00,
2013-05-27 18:10:00,68.1,41.5,30.14,NE,39,1.0,1.0,38,0.00,,,0.00,Wunderground v.1.15,2013-05-27 22:10:00,
2013-05-27 18:20:00,68.0,42.1,30.14,NE,39,1.0,1.0,39,0.00,,,0.00,Wunderground v.1.15,2013-05-27 22:20:00,
2013-05-27 18:30:00,67.9,42.7,30.14,NE,36,1.0,1.0,40,0.00,,,0.00,Wunderground v.1.15,2013-05-27 22:30:00,
2013-05-27 18:40:00,67.7,41.8,30.14,NE,36,1.0,1.0,39,0.00,,,0.00,Wunderground v.1.15,2013-05-27 22:40:00,
2013-05-27 18:45:00,67.7,41.8,30.14,NE,36,1.0,1.0,39,0.00,,,0.00,Wunderground v.1.15,2013-05-27 22:45:00,
2013-05-27 18:50:00,67.6,42.4,30.14,NE,36,0.0,2.0,40,0.00,,,0.00,Wunderground v.1.15,2013-05-27 22:50:00,
2013-05-27 19:00:00,67.1,41.3,30.14,NE,36,1.0,1.0,39,0.00,,,0.00,Wunderground v.1.15,2013-05-27 23:00:00,
2013-05-27 19:10:00,66.6,40.2,30.13,NE,39,1.0,1.0,38,0.00,,,0.00,Wunderground v.1.15,2013-05-27 23:10:00,
2013-05-27 19:20:00,66.1,42.9,30.13,NE,39,1.0,1.0,43,0.00,,,0.00,Wunderground v.1.15,2013-05-27 23:20:00,
2013-05-27 19:30:00,65.6,41.3,30.13,NE,38,0.0,0.0,41,0.00,,,0.00,Wunderground v.1.15,2013-05-27 23:30:00,
2013-05-27 19:40:00,65.0,40.7,30.13,NE,38,0.0,0.0,41,0.00,,,0.00,Wunderground v.1.15,2013-05-27 23:40:00,
2013-05-27 19:45:00,64.8,41.8,30.13,NE,39,0.0,0.0,43,0.00,,,0.00,Wunderground v.1.15,2013-05-27 23:45:00,
2013-05-27 19:50:00,64.5,41.5,30.13,NE,38,0.0,0.0,43,0.00,,,0.00,Wunderground v.1.15,2013-05-27 23:50:00,
2013-05-27 19:55:00,64.3,41.3,30.13,NE,39,0.0,0.0,43,0.00,,,0.00,Wunderground v.1.15,2013-05-27 23:55:00,
2013-05-27 20:05:00,63.5,42.9,30.13,NE,39,0.0,0.0,47,0.00,,,0.00,Wunderground v.1.15,2013-05-28 00:05:00,
2013-05-27 20:10:00,63.1,43.1,30.13,NE,39,0.0,0.0,48,0.00,,,0.00,Wunderground v.1.15,2013-05-28 00:10:00,
2013-05-27 20:20:00,61.8,43.0,30.13,NE,39,0.0,0.0,50,0.00,,,0.00,Wunderground v.1.15,2013-05-28 00:20:00,
2013-05-27 20:30:00,60.5,43.3,30.13,NE,38,0.0,0.0,53,0.00,,,0.00,Wunderground v.1.15,2013-05-28 00:30:00,
2013-05-27 20:35:00,60.1,43.4,30.12,NE,38,0.0,0.0,54,0.00,,,0.00,Wunderground v.1.15,2013-05-28 00:35:00,
2013-05-27 20:45:00,59.0,43.8,30.12,NE,38,0.0,0.0,57,0.00,,,0.00,Wunderground v.1.15,2013-05-28 00:45:00,
2013-05-27 20:50:00,58.6,42.9,30.12,NE,39,0.0,0.0,56,0.00,,,0.00,Wunderground v.1.15,2013-05-28 00:50:00,
2013-05-27 21:00:00,57.6,42.5,30.12,NE,38,0.0,0.0,57,0.00,,,0.00,Wunderground v.1.15,2013-05-28 01:00:00,
2013-05-27 21:10:00,56.5,43.2,30.13,NE,39,1.0,1.0,61,0.00,,,0.00,Wunderground v.1.15,2013-05-28 01:10:00,
2013-05-27 21:20:00,55.7,43.3,30.13,NE,39,0.0,0.0,63,0.00,,,0.00,Wunderground v.1.15,2013-05-28 01:20:00,
2013-05-27 21:30:00,55.0,43.8,30.13,NE,39,0.0,0.0,66,0.00,,,0.00,Wunderground v.1.15,2013-05-28 01:30:00,
2013-05-27 21:40:00,54.4,43.7,30.13,NE,39,0.0,0.0,67,0.00,,,0.00,Wunderground v.1.15,2013-05-28 01:40:00,
2013-05-27 21:50:00,53.7,43.8,30.13,NE,39,0.0,0.0,69,0.00,,,0.00,Wunderground v.1.15,2013-05-28 01:50:00,
2013-05-27 21:55:00,53.5,44.0,30.13,NE,39,0.0,0.0,70,0.00,,,0.00,Wunderground v.1.15,2013-05-28 01:55:00,
2013-05-27 22:05:00,53.2,43.7,30.13,NE,39,0.0,0.0,70,0.00,,,0.00,Wunderground v.1.15,2013-05-28 02:05:00,
2013-05-27 22:15:00,52.9,44.1,30.13,NE,39,0.0,0.0,72,0.00,,,0.00,Wunderground v.1.15,2013-05-28 02:15:00,
2013-05-27 22:25:00,52.6,44.9,30.13,NE,38,0.0,0.0,75,0.00,,,0.00,Wunderground v.1.15,2013-05-28 02:25:00,
2013-05-27 22:35:00,52.1,44.8,30.13,NE,39,0.0,0.0,76,0.00,,,0.00,Wunderground v.1.15,2013-05-28 02:35:00,
2013-05-27 22:40:00,52.0,44.7,30.14,NE,39,0.0,0.0,76,0.00,,,0.00,Wunderground v.1.15,2013-05-28 02:40:00,
2013-05-27 22:50:00,51.7,45.1,30.14,NE,38,0.0,0.0,78,0.00,,,0.00,Wunderground v.1.15,2013-05-28 02:50:00,
2013-05-27 23:00:00,51.5,44.9,30.14,NE,38,0.0,0.0,78,0.00,,,0.00,Wunderground v.1.15,2013-05-28 03:00:00,
2013-05-27 23:05:00,51.4,45.1,30.14,NE,38,0.0,0.0,79,0.00,,,0.00,Wunderground v.1.15,2013-05-28 03:05:00,
2013-05-27 23:15:00,51.2,45.2,30.14,NE,39,0.0,0.0,80,0.00,,,0.00,Wunderground v.1.15,2013-05-28 03:15:00,
2013-05-27 23:25:00,51.0,45.0,30.14,NE,39,0.0,0.0,80,0.00,,,0.00,Wunderground v.1.15,2013-05-28 03:25:00,
2013-05-27 23:35:00,50.8,45.2,30.14,NE,39,1.0,2.0,81,0.00,,,0.00,Wunderground v.1.15,2013-05-28 03:35:00,
2013-05-27 23:40:00,50.5,45.2,30.14,NE,39,1.0,1.0,82,0.00,,,0.00,Wunderground v.1.15,2013-05-28 03:40:00,
2013-05-27 23:50:00,50.1,44.8,30.14,NE,39,0.0,0.0,82,0.00,,,0.00,Wunderground v.1.15,2013-05-28 03:50:00,
2013-05-27 23:55:00,50.0,45.0,30.14,NE,39,0.0,0.0,83,0.00,,,0.00,Wunderground v.1.15,2013-05-28 03:55:00,